Sunday, December 17, 2017, 10:20 PM EST
Back to Local

KLNS, Lancaster Airport

Location: Lititz, PA, United States Lat: 40.117
Local Time: 10:20 PM EST ( 3:20 GMT) Lon: -76.3
Time Zone: US/Eastern Elev: 403 ft

Show me the last for .
Show Decoded

2017-12-17 21:53 METAR KLNS 180253Z 08004KT 7SM SCT055 BKN075 OVC090 02/M01 A3018 RMK AO2 SLP223
                 T00221006 58009 =
2017-12-17 20:53 METAR KLNS 180153Z 12003KT 7SM OVC055 02/M01 A3019 RMK AO2 SLP228 T00221006 =
2017-12-17 19:53 METAR KLNS 180053Z 05004KT 7SM SCT120 02/M01 A3020 RMK AO2 SLP230 T00221006 =
2017-12-17 18:53 METAR KLNS 172353Z 08004KT 8SM BKN110 02/M01 A3021 RMK AO2 SLP233 T00221006
                 10067 20017 50007 =
2017-12-17 17:53 METAR KLNS 172253Z 00000KT 7SM FEW120 03/M01 A3022 RMK AO2 SLP236 T00281006 =
2017-12-17 16:53 METAR KLNS 172153Z 08003KT 8SM CLR 03/M01 A3019 RMK AO2 SLP228 T00281006 =
2017-12-17 15:53 METAR KLNS 172053Z 12005KT 7SM CLR 04/00 A3019 RMK AO2 SLP225 T00390000 56009 =
2017-12-17 14:53 METAR KLNS 171953Z 06003KT 8SM CLR 05/M01 A3019 RMK AO2 SLP226 T00501006 =
2017-12-17 13:53 METAR KLNS 171853Z 00000KT 8SM CLR 06/M01 A3020 RMK AO2 SLP229 T00561006 =
2017-12-17 12:53 METAR KLNS 171753Z 00000KT 7SM CLR 04/M01 A3021 RMK AO2 SLP235 T00391011 10039
                 21033 58017 =
2017-12-17 11:53 METAR KLNS 171653Z 00000KT 7SM CLR 03/M01 A3026 RMK AO2 SLP251 T00331011 =
2017-12-17 10:53 METAR KLNS 171553Z 09003KT 6SM HZ CLR 02/M01 A3027 RMK AO2 SLP254 T00171011 =
2017-12-17 09:53 METAR KLNS 171453Z 10003KT 5SM BR CLR 01/M01 A3026 RMK AO2 SLP251 T00061011
                 51009 =
2017-12-17 08:53 METAR KLNS 171353Z 00000KT 4SM BR CLR M01/M02 A3025 RMK AO2 SLP247 T10111022 =
2017-12-17 07:53 METAR KLNS 171253Z 13003KT 4SM BR CLR M03/M03 A3026 RMK AO2 SLP249 T10281033 =
2017-12-17 06:53 METAR KLNS 171153Z 00000KT 6SM BR CLR M03/M04 A3023 RMK AO2 SLP242 T10281039
                 10000 21033 53007 =
2017-12-17 05:53 METAR KLNS 171053Z 00000KT 6SM BR CLR M03/M04 A3022 RMK AO2 SLP238 T10281039 =
2017-12-17 04:53 METAR KLNS 170953Z AUTO 00000KT 6SM BR CLR M03/M04 A3021 RMK AO2 SLP233
                 T10281039 =
2017-12-17 03:53 METAR KLNS 170853Z AUTO 00000KT 8SM CLR M02/M03 A3021 RMK AO2 SLP235 T10171033
                 50010 =
2017-12-17 02:53 METAR KLNS 170753Z AUTO 00000KT 7SM CLR M01/M03 A3022 RMK AO2 SLP237 T10061028 =
2017-12-17 01:53 METAR KLNS 170653Z AUTO 00000KT 7SM CLR M02/M03 A3021 RMK AO2 SLP232 T10171028 =
2017-12-17 00:53 METAR KLNS 170553Z AUTO 00000KT 8SM CLR 00/M03 A3018 RMK AO2 SLP225 T00001028
                 10039 21006 51009 =
2017-12-16 23:53 METAR KLNS 170453Z AUTO 00000KT 7SM FEW055 01/M03 A3018 RMK AO2 SLP224 T00061028
                 400561100 =
2017-12-16 22:53 METAR KLNS 170353Z 00000KT 10SM OVC055 03/M03 A3017 RMK AO2 SLP219 T00281028 =

Support USWX by starting your Amazon purchase here.